PWSweather.com
Personal Weather Stations
Station Observations
KORSEASI11
The Cove, Seaside, OR 97138

The CoveSeaside, OR 97138

Lat: 45.978896, Lon: -123.934823

Elevation: 16

Station Type: Davis Vantage Pro2 6163

http://www.seasideforecast.com

Latest ConditionsUpdated 11:50:01 PM PDT Saturday, Jul 22, 2017
Currently Today's Max Today's Min Today's Average
Temperature 63.1°F17.3°C 74.4°F23.6°C 58.5°F14.7°C 65.4°F18.6°C
Dew Point 59.5°F15.3°C 66.3°F19.1°C 55.0°F12.8°C 60.4°F15.8°C
Winds 10.4 mph NE16.7 kmh NE 11.5 mph NNE18.5 kmh NNE - 5.3 mph 8.5 kmh
Wind Gusts 12.7 mph20.4 kmh 15.0 mph24.1 kmh - -
Humidity 88% 90% 75% 84%
Pressure 30.10 in1019.3 mb 30.16 in1021.3 mb 30.09 in1019.0 mb -
Hour Temp Dew Point Humidity Winds Wind Gusts Pressure Precip Precip Rate Daily Precip Total
11:50 PM 63.1°F17.3°C 59.5°F15.3°C 88% 10.4 mph NE16.7 kmh NE 12.7 mph20.4 kmh 30.10 in1019.3 mb - 0.00 in0.0 mm 0.00 in0.0 mm
11:40 PM 63.1°F17.3°C 59.5°F15.3°C 88% 10.4 mph NE16.7 kmh NE 12.7 mph20.4 kmh 30.10 in1019.3 mb - 0.00 in0.0 mm 0.00 in0.0 mm
11:30 PM 63.2°F17.3°C 59.9°F15.5°C 89% 9.2 mph NE14.8 kmh NE 11.5 mph18.5 kmh 30.10 in1019.3 mb - 0.00 in0.0 mm 0.00 in0.0 mm
11:20 PM 63.4°F17.4°C 59.8°F15.4°C 88% 8.1 mph NE13.0 kmh NE 10.4 mph16.7 kmh 30.10 in1019.3 mb - 0.00 in0.0 mm 0.00 in0.0 mm
11:10 PM 63.6°F17.6°C 60.3°F15.7°C 89% 8.1 mph NE13.0 kmh NE 10.4 mph16.7 kmh 30.10 in1019.3 mb - 0.00 in0.0 mm 0.00 in0.0 mm
11:00 PM 63.7°F17.6°C 60.4°F15.8°C 89% 9.2 mph NE14.8 kmh NE 12.7 mph20.4 kmh 30.10 in1019.3 mb - 0.00 in0.0 mm 0.00 in0.0 mm
10:50 PM 63.6°F17.6°C 60.3°F15.7°C 89% 9.2 mph NE14.8 kmh NE 11.5 mph18.5 kmh 30.10 in1019.3 mb - 0.00 in0.0 mm 0.00 in0.0 mm
10:40 PM 63.7°F17.6°C 60.4°F15.8°C 89% 9.2 mph NE14.8 kmh NE 10.4 mph16.7 kmh 30.10 in1019.3 mb - 0.00 in0.0 mm 0.00 in0.0 mm
10:30 PM 63.8°F17.7°C 60.5°F15.8°C 89% 9.2 mph NE14.8 kmh NE 12.7 mph20.4 kmh 30.10 in1019.3 mb - 0.00 in0.0 mm 0.00 in0.0 mm
10:20 PM 63.9°F17.7°C 60.6°F15.9°C 89% 9.2 mph NE14.8 kmh NE 11.5 mph18.5 kmh 30.10 in1019.3 mb - 0.00 in0.0 mm 0.00 in0.0 mm
10:10 PM 64.1°F17.8°C 60.8°F16.0°C 89% 8.1 mph NE13.0 kmh NE 11.5 mph18.5 kmh 30.10 in1019.3 mb - 0.00 in0.0 mm 0.00 in0.0 mm
10:00 PM 64.2°F17.9°C 61.2°F16.2°C 90% 8.1 mph NE13.0 kmh NE 10.4 mph16.7 kmh 30.10 in1019.3 mb - 0.00 in0.0 mm 0.00 in0.0 mm
09:50 PM 64.3°F17.9°C 61.3°F16.3°C 90% 8.1 mph NE13.0 kmh NE 11.5 mph18.5 kmh 30.10 in1019.3 mb - 0.00 in0.0 mm 0.00 in0.0 mm
09:40 PM 64.5°F18.1°C 61.5°F16.4°C 90% 6.9 mph NE11.1 kmh NE 10.4 mph16.7 kmh 30.10 in1019.3 mb - 0.00 in0.0 mm 0.00 in0.0 mm
09:30 PM 64.5°F18.1°C 61.5°F16.4°C 90% 4.6 mph NE7.4 kmh NE 8.1 mph13.0 kmh 30.10 in1019.3 mb - 0.00 in0.0 mm 0.00 in0.0 mm
09:20 PM 64.5°F18.1°C 61.2°F16.2°C 89% 4.6 mph NE7.4 kmh NE 5.8 mph9.3 kmh 30.10 in1019.3 mb - 0.00 in0.0 mm 0.00 in0.0 mm
09:10 PM 64.4°F18.0°C 61.1°F16.2°C 89% 4.6 mph NE7.4 kmh NE 6.9 mph11.1 kmh 30.10 in1019.3 mb - 0.00 in0.0 mm 0.00 in0.0 mm
09:00 PM 64.4°F18.0°C 61.1°F16.2°C 89% 5.8 mph NE9.3 kmh NE 8.1 mph13.0 kmh 30.10 in1019.3 mb - 0.00 in0.0 mm 0.00 in0.0 mm
08:50 PM 64.4°F18.0°C 60.8°F16.0°C 88% 8.1 mph NE13.0 kmh NE 10.4 mph16.7 kmh 30.10 in1019.3 mb - 0.00 in0.0 mm 0.00 in0.0 mm
08:40 PM 64.8°F18.2°C 61.2°F16.2°C 88% 10.4 mph NE16.7 kmh NE 12.7 mph20.4 kmh 30.10 in1019.3 mb - 0.00 in0.0 mm 0.00 in0.0 mm
08:30 PM 65.2°F18.4°C 61.3°F16.3°C 87% 9.2 mph NE14.8 kmh NE 11.5 mph18.5 kmh 30.10 in1019.3 mb - 0.00 in0.0 mm 0.00 in0.0 mm
08:20 PM 65.7°F18.7°C 61.7°F16.5°C 87% 10.4 mph NNE16.7 kmh NNE 12.7 mph20.4 kmh 30.10 in1019.3 mb - 0.00 in0.0 mm 0.00 in0.0 mm
08:10 PM 66.1°F18.9°C 61.8°F16.6°C 86% 9.2 mph NNE14.8 kmh NNE 11.5 mph18.5 kmh 30.10 in1019.3 mb - 0.00 in0.0 mm 0.00 in0.0 mm
08:00 PM 66.7°F19.3°C 62.0°F16.7°C 85% 10.4 mph NE16.7 kmh NE 11.5 mph18.5 kmh 30.10 in1019.3 mb - 0.00 in0.0 mm 0.00 in0.0 mm
07:50 PM 67.5°F19.7°C 62.5°F16.9°C 84% 11.5 mph NE18.5 kmh NE 15.0 mph24.1 kmh 30.10 in1019.3 mb - 0.00 in0.0 mm 0.00 in0.0 mm
07:40 PM 68.5°F20.3°C 63.5°F17.5°C 84% 10.4 mph NE16.7 kmh NE 11.5 mph18.5 kmh 30.10 in1019.3 mb - 0.00 in0.0 mm 0.00 in0.0 mm
07:30 PM 68.8°F20.4°C 63.8°F17.7°C 84% 10.4 mph NNE16.7 kmh NNE 13.8 mph22.2 kmh 30.09 in1019.0 mb - 0.00 in0.0 mm 0.00 in0.0 mm
07:20 PM 68.8°F20.4°C 63.8°F17.7°C 84% 11.5 mph NNE18.5 kmh NNE 12.7 mph20.4 kmh 30.09 in1019.0 mb - 0.00 in0.0 mm 0.00 in0.0 mm
07:10 PM 69.2°F20.7°C 64.1°F17.8°C 84% 9.2 mph NNE14.8 kmh NNE 11.5 mph18.5 kmh 30.09 in1019.0 mb - 0.00 in0.0 mm 0.00 in0.0 mm
07:00 PM 69.3°F20.7°C 64.6°F18.1°C 85% 10.4 mph NNE16.7 kmh NNE 13.8 mph22.2 kmh 30.09 in1019.0 mb - 0.00 in0.0 mm 0.00 in0.0 mm
06:50 PM 68.8°F20.4°C 64.4°F18.0°C 86% 8.1 mph NE13.0 kmh NE 11.5 mph18.5 kmh 30.10 in1019.3 mb - 0.00 in0.0 mm 0.00 in0.0 mm
06:40 PM 68.0°F20.0°C 63.3°F17.4°C 85% 8.1 mph N13.0 kmh N 9.2 mph14.8 kmh 30.10 in1019.3 mb - 0.00 in0.0 mm 0.00 in0.0 mm
06:30 PM 68.0°F20.0°C 63.0°F17.2°C 84% 6.9 mph N11.1 kmh N 9.2 mph14.8 kmh 30.10 in1019.3 mb - 0.00 in0.0 mm 0.00 in0.0 mm
06:20 PM 68.4°F20.2°C 63.4°F17.4°C 84% 5.8 mph N9.3 kmh N 8.1 mph13.0 kmh 30.10 in1019.3 mb - 0.00 in0.0 mm 0.00 in0.0 mm
06:10 PM 68.7°F20.4°C 63.3°F17.4°C 83% 8.1 mph NNE13.0 kmh NNE 9.2 mph14.8 kmh 30.11 in1019.6 mb - 0.00 in0.0 mm 0.00 in0.0 mm
06:00 PM 69.2°F20.7°C 63.8°F17.7°C 83% 6.9 mph NNE11.1 kmh NNE 11.5 mph18.5 kmh 30.11 in1019.6 mb - 0.00 in0.0 mm 0.00 in0.0 mm
05:50 PM 69.4°F20.8°C 64.0°F17.8°C 83% 5.8 mph N9.3 kmh N 6.9 mph11.1 kmh 30.11 in1019.6 mb - 0.00 in0.0 mm 0.00 in0.0 mm
05:40 PM 69.5°F20.8°C 63.8°F17.7°C 82% 4.6 mph N7.4 kmh N 6.9 mph11.1 kmh 30.11 in1019.6 mb - 0.00 in0.0 mm 0.00 in0.0 mm
05:30 PM 69.7°F20.9°C 64.0°F17.8°C 82% 4.6 mph N7.4 kmh N 4.6 mph7.4 kmh 30.11 in1019.6 mb - 0.00 in0.0 mm 0.00 in0.0 mm
05:20 PM 69.8°F21.0°C 64.1°F17.8°C 82% 4.6 mph N7.4 kmh N 6.9 mph11.1 kmh 30.11 in1019.6 mb - 0.00 in0.0 mm 0.00 in0.0 mm
05:10 PM 69.7°F20.9°C 64.0°F17.8°C 82% 5.8 mph NNE9.3 kmh NNE 6.9 mph11.1 kmh 30.12 in1020.0 mb - 0.00 in0.0 mm 0.00 in0.0 mm
05:00 PM 69.8°F21.0°C 64.1°F17.8°C 82% 5.8 mph NNE9.3 kmh NNE 6.9 mph11.1 kmh 30.12 in1020.0 mb - 0.00 in0.0 mm 0.00 in0.0 mm
04:50 PM 70.1°F21.2°C 64.0°F17.8°C 81% 6.9 mph NNE11.1 kmh NNE 10.4 mph16.7 kmh 30.12 in1020.0 mb - 0.00 in0.0 mm 0.00 in0.0 mm
04:40 PM 70.4°F21.3°C 63.9°F17.7°C 80% 5.8 mph NE9.3 kmh NE 8.1 mph13.0 kmh 30.12 in1020.0 mb - 0.00 in0.0 mm 0.00 in0.0 mm
04:30 PM 70.7°F21.5°C 64.2°F17.9°C 80% 8.1 mph NE13.0 kmh NE 9.2 mph14.8 kmh 30.13 in1020.3 mb - 0.00 in0.0 mm 0.00 in0.0 mm
04:20 PM 71.2°F21.8°C 64.4°F18.0°C 79% 5.8 mph NE9.3 kmh NE 9.2 mph14.8 kmh 30.13 in1020.3 mb - 0.00 in0.0 mm 0.00 in0.0 mm
04:10 PM 71.5°F21.9°C 64.6°F18.1°C 79% 5.8 mph NE9.3 kmh NE 8.1 mph13.0 kmh 30.13 in1020.3 mb - 0.00 in0.0 mm 0.00 in0.0 mm
04:00 PM 72.0°F22.2°C 64.7°F18.2°C 78% 6.9 mph NNE11.1 kmh NNE 9.2 mph14.8 kmh 30.13 in1020.3 mb - 0.00 in0.0 mm 0.00 in0.0 mm
03:50 PM 72.5°F22.5°C 64.9°F18.3°C 77% 8.1 mph NE13.0 kmh NE 9.2 mph14.8 kmh 30.13 in1020.3 mb - 0.00 in0.0 mm 0.00 in0.0 mm
03:40 PM 73.1°F22.8°C 65.5°F18.6°C 77% 8.1 mph NNE13.0 kmh NNE 11.5 mph18.5 kmh 30.14 in1020.7 mb - 0.00 in0.0 mm 0.00 in0.0 mm
03:30 PM 73.5°F23.1°C 65.5°F18.6°C 76% 8.1 mph NNE13.0 kmh NNE 11.5 mph18.5 kmh 30.14 in1020.7 mb - 0.00 in0.0 mm 0.00 in0.0 mm
03:20 PM 73.9°F23.3°C 65.9°F18.8°C 76% 6.9 mph N11.1 kmh N 9.2 mph14.8 kmh 30.14 in1020.7 mb - 0.00 in0.0 mm 0.00 in0.0 mm
03:10 PM 74.0°F23.3°C 65.6°F18.7°C 75% 9.2 mph N14.8 kmh N 10.4 mph16.7 kmh 30.14 in1020.7 mb - 0.00 in0.0 mm 0.00 in0.0 mm
03:00 PM 74.4°F23.6°C 66.3°F19.1°C 76% 8.1 mph N13.0 kmh N 9.2 mph14.8 kmh 30.14 in1020.7 mb - 0.00 in0.0 mm 0.00 in0.0 mm
02:50 PM 74.3°F23.5°C 66.2°F19.0°C 76% 6.9 mph N11.1 kmh N 10.4 mph16.7 kmh 30.14 in1020.7 mb - 0.00 in0.0 mm 0.00 in0.0 mm
02:40 PM 74.2°F23.4°C 65.8°F18.8°C 75% 6.9 mph N11.1 kmh N 8.1 mph13.0 kmh 30.14 in1020.7 mb - 0.00 in0.0 mm 0.00 in0.0 mm
02:30 PM 74.1°F23.4°C 66.0°F18.9°C 76% 6.9 mph N11.1 kmh N 8.1 mph13.0 kmh 30.15 in1021.0 mb - 0.00 in0.0 mm 0.00 in0.0 mm
02:20 PM 73.9°F23.3°C 65.9°F18.8°C 76% 6.9 mph N11.1 kmh N 8.1 mph13.0 kmh 30.15 in1021.0 mb - 0.00 in0.0 mm 0.00 in0.0 mm
02:10 PM 73.8°F23.2°C 65.7°F18.7°C 76% 5.8 mph N9.3 kmh N 6.9 mph11.1 kmh 30.15 in1021.0 mb - 0.00 in0.0 mm 0.00 in0.0 mm
02:00 PM 73.5°F23.1°C 65.5°F18.6°C 76% 6.9 mph N11.1 kmh N 8.1 mph13.0 kmh 30.15 in1021.0 mb - 0.00 in0.0 mm 0.00 in0.0 mm
01:50 PM 73.2°F22.9°C 65.2°F18.4°C 76% 5.8 mph N9.3 kmh N 6.9 mph11.1 kmh 30.15 in1021.0 mb - 0.00 in0.0 mm 0.00 in0.0 mm
01:40 PM 73.1°F22.8°C 65.1°F18.4°C 76% 5.8 mph N9.3 kmh N 8.1 mph13.0 kmh 30.15 in1021.0 mb - 0.00 in0.0 mm 0.00 in0.0 mm
01:30 PM 73.0°F22.8°C 65.3°F18.5°C 77% 6.9 mph N11.1 kmh N 9.2 mph14.8 kmh 30.16 in1021.3 mb - 0.00 in0.0 mm 0.00 in0.0 mm
01:20 PM 72.8°F22.7°C 65.2°F18.4°C 77% 6.9 mph N11.1 kmh N 8.1 mph13.0 kmh 30.16 in1021.3 mb - 0.00 in0.0 mm 0.00 in0.0 mm
01:10 PM 72.8°F22.7°C 65.2°F18.4°C 77% 6.9 mph N11.1 kmh N 8.1 mph13.0 kmh 30.15 in1021.0 mb - 0.00 in0.0 mm 0.00 in0.0 mm
01:00 PM 72.4°F22.4°C 65.2°F18.4°C 78% 8.1 mph N13.0 kmh N 9.2 mph14.8 kmh 30.16 in1021.3 mb - 0.00 in0.0 mm 0.00 in0.0 mm
12:50 PM 72.1°F22.3°C 64.9°F18.3°C 78% 6.9 mph N11.1 kmh N 9.2 mph14.8 kmh 30.16 in1021.3 mb - 0.00 in0.0 mm 0.00 in0.0 mm
12:40 PM 72.0°F22.2°C 64.8°F18.2°C 78% 8.1 mph N13.0 kmh N 9.2 mph14.8 kmh 30.16 in1021.3 mb - 0.00 in0.0 mm 0.00 in0.0 mm
12:30 PM 71.7°F22.1°C 64.1°F17.8°C 77% 8.1 mph N13.0 kmh N 10.4 mph16.7 kmh 30.16 in1021.3 mb - 0.00 in0.0 mm 0.00 in0.0 mm
12:20 PM 71.3°F21.8°C 63.7°F17.6°C 77% 6.9 mph N11.1 kmh N 9.2 mph14.8 kmh 30.16 in1021.3 mb - 0.00 in0.0 mm 0.00 in0.0 mm
12:10 PM 70.8°F21.6°C 63.2°F17.3°C 77% 6.9 mph N11.1 kmh N 9.2 mph14.8 kmh 30.16 in1021.3 mb - 0.00 in0.0 mm 0.00 in0.0 mm
12:00 PM 70.5°F21.4°C 62.6°F17.0°C 76% 8.1 mph N13.0 kmh N 10.4 mph16.7 kmh 30.16 in1021.3 mb - 0.00 in0.0 mm 0.00 in0.0 mm
11:50 AM 70.4°F21.3°C 62.8°F17.1°C 77% 6.9 mph N11.1 kmh N 8.1 mph13.0 kmh 30.16 in1021.3 mb - 0.00 in0.0 mm 0.00 in0.0 mm
11:40 AM 70.1°F21.2°C 62.6°F17.0°C 77% 8.1 mph N13.0 kmh N 9.2 mph14.8 kmh 30.16 in1021.3 mb - 0.00 in0.0 mm 0.00 in0.0 mm
11:30 AM 69.7°F20.9°C 62.2°F16.8°C 77% 8.1 mph N13.0 kmh N 10.4 mph16.7 kmh 30.16 in1021.3 mb - 0.00 in0.0 mm 0.00 in0.0 mm
11:20 AM 69.3°F20.7°C 62.2°F16.8°C 78% 6.9 mph N11.1 kmh N 8.1 mph13.0 kmh 30.16 in1021.3 mb - 0.00 in0.0 mm 0.00 in0.0 mm
11:10 AM 69.0°F20.6°C 61.9°F16.6°C 78% 6.9 mph N11.1 kmh N 8.1 mph13.0 kmh 30.16 in1021.3 mb - 0.00 in0.0 mm 0.00 in0.0 mm
11:00 AM 68.7°F20.4°C 61.6°F16.4°C 78% 6.9 mph N11.1 kmh N 6.9 mph11.1 kmh 30.16 in1021.3 mb - 0.00 in0.0 mm 0.00 in0.0 mm
10:50 AM 68.4°F20.2°C 61.6°F16.4°C 79% 6.9 mph N11.1 kmh N 8.1 mph13.0 kmh 30.16 in1021.3 mb - 0.00 in0.0 mm 0.00 in0.0 mm
10:40 AM 67.8°F19.9°C 61.1°F16.2°C 79% 6.9 mph N11.1 kmh N 8.1 mph13.0 kmh 30.16 in1021.3 mb - 0.00 in0.0 mm 0.00 in0.0 mm
10:30 AM 67.5°F19.7°C 60.8°F16.0°C 79% 6.9 mph 11.1 kmh 8.1 mph13.0 kmh 30.16 in1021.3 mb - 0.00 in0.0 mm 0.00 in0.0 mm
10:20 AM 67.2°F19.6°C 60.5°F15.8°C 79% 6.9 mph N11.1 kmh N 9.2 mph14.8 kmh 30.16 in1021.3 mb - 0.00 in0.0 mm 0.00 in0.0 mm
10:10 AM 66.8°F19.3°C 60.1°F15.6°C 79% 6.9 mph N11.1 kmh N 8.1 mph13.0 kmh 30.16 in1021.3 mb - 0.00 in0.0 mm 0.00 in0.0 mm
10:00 AM 66.4°F19.1°C 59.7°F15.4°C 79% 5.8 mph N9.3 kmh N 6.9 mph11.1 kmh 30.16 in1021.3 mb - 0.00 in0.0 mm 0.00 in0.0 mm
09:50 AM 66.3°F19.1°C 59.9°F15.5°C 80% 5.8 mph N9.3 kmh N 6.9 mph11.1 kmh 30.16 in1021.3 mb - 0.00 in0.0 mm 0.00 in0.0 mm
09:40 AM 66.3°F19.1°C 60.3°F15.7°C 81% 4.6 mph N7.4 kmh N 4.6 mph7.4 kmh 30.16 in1021.3 mb - 0.00 in0.0 mm 0.00 in0.0 mm
09:30 AM 66.1°F18.9°C 60.1°F15.6°C 81% 4.6 mph N7.4 kmh N 4.6 mph7.4 kmh 30.16 in1021.3 mb - 0.00 in0.0 mm 0.00 in0.0 mm
09:20 AM 66.0°F18.9°C 60.0°F15.6°C 81% 4.6 mph N7.4 kmh N 4.6 mph7.4 kmh 30.16 in1021.3 mb - 0.00 in0.0 mm 0.00 in0.0 mm
09:10 AM 65.5°F18.6°C 59.5°F15.3°C 81% 4.6 mph N7.4 kmh N 4.6 mph7.4 kmh 30.16 in1021.3 mb - 0.00 in0.0 mm 0.00 in0.0 mm
09:00 AM 65.2°F18.4°C 59.6°F15.3°C 82% 3.5 mph N5.6 kmh N 5.8 mph9.3 kmh 30.16 in1021.3 mb - 0.00 in0.0 mm 0.00 in0.0 mm
08:50 AM 64.8°F18.2°C 59.5°F15.3°C 83% 3.5 mph N5.6 kmh N 3.5 mph5.6 kmh 30.16 in1021.3 mb - 0.00 in0.0 mm 0.00 in0.0 mm
08:40 AM 64.1°F17.8°C 58.8°F14.9°C 83% Calm Calm -- 30.16 in1021.3 mb - 0.00 in0.0 mm 0.00 in0.0 mm
08:30 AM 63.6°F17.6°C 58.7°F14.8°C 84% Calm Calm -- 30.16 in1021.3 mb - 0.00 in0.0 mm 0.00 in0.0 mm
08:20 AM 63.1°F17.3°C 58.5°F14.7°C 85% Calm Calm -- 30.16 in1021.3 mb - 0.00 in0.0 mm 0.00 in0.0 mm
08:10 AM 62.6°F17.0°C 58.0°F14.4°C 85% Calm Calm -- 30.16 in1021.3 mb - 0.00 in0.0 mm 0.00 in0.0 mm
08:00 AM 62.3°F16.8°C 58.0°F14.4°C 86% Calm Calm -- 30.16 in1021.3 mb - 0.00 in0.0 mm 0.00 in0.0 mm
07:50 AM 61.9°F16.6°C 58.0°F14.4°C 87% Calm Calm 3.5 mph5.6 kmh 30.16 in1021.3 mb - 0.00 in0.0 mm 0.00 in0.0 mm
07:40 AM 61.5°F16.4°C 57.6°F14.2°C 87% 1.2 mph SSW1.9 kmh SSW 3.5 mph5.6 kmh 30.16 in1021.3 mb - 0.00 in0.0 mm 0.00 in0.0 mm
07:30 AM 61.1°F16.2°C 57.2°F14.0°C 87% Calm Calm -- 30.16 in1021.3 mb - 0.00 in0.0 mm 0.00 in0.0 mm
07:20 AM 60.8°F16.0°C 56.9°F13.8°C 87% Calm Calm -- 30.15 in1021.0 mb - 0.00 in0.0 mm 0.00 in0.0 mm
07:10 AM 60.5°F15.8°C 56.6°F13.7°C 87% Calm Calm -- 30.15 in1021.0 mb - 0.00 in0.0 mm 0.00 in0.0 mm
07:00 AM 60.3°F15.7°C 56.7°F13.7°C 88% Calm Calm -- 30.15 in1021.0 mb - 0.00 in0.0 mm 0.00 in0.0 mm
06:50 AM 60.1°F15.6°C 56.5°F13.6°C 88% 2.3 mph SSW3.7 kmh SSW 3.5 mph5.6 kmh 30.15 in1021.0 mb - 0.00 in0.0 mm 0.00 in0.0 mm
06:40 AM 59.9°F15.5°C 56.3°F13.5°C 88% 1.2 mph SSW1.9 kmh SSW 3.5 mph5.6 kmh 30.14 in1020.7 mb - 0.00 in0.0 mm 0.00 in0.0 mm
06:30 AM 59.8°F15.4°C 56.2°F13.4°C 88% Calm Calm -- 30.14 in1020.7 mb - 0.00 in0.0 mm 0.00 in0.0 mm
06:20 AM 59.7°F15.4°C 56.1°F13.4°C 88% Calm Calm -- 30.14 in1020.7 mb - 0.00 in0.0 mm 0.00 in0.0 mm
06:10 AM 59.6°F15.3°C 56.0°F13.3°C 88% Calm Calm -- 30.14 in1020.7 mb - 0.00 in0.0 mm 0.00 in0.0 mm
06:00 AM 59.5°F15.3°C 55.9°F13.3°C 88% 1.2 mph S1.9 kmh S 3.5 mph5.6 kmh 30.14 in1020.7 mb - 0.00 in0.0 mm 0.00 in0.0 mm
05:50 AM 59.4°F15.2°C 55.8°F13.2°C 88% 1.2 mph SSW1.9 kmh SSW 1.2 mph1.9 kmh 30.14 in1020.7 mb - 0.00 in0.0 mm 0.00 in0.0 mm
05:40 AM 59.4°F15.2°C 55.8°F13.2°C 88% Calm Calm -- 30.14 in1020.7 mb - 0.00 in0.0 mm 0.00 in0.0 mm
05:30 AM 59.4°F15.2°C 55.8°F13.2°C 88% Calm Calm -- 30.13 in1020.3 mb - 0.00 in0.0 mm 0.00 in0.0 mm
05:20 AM 59.4°F15.2°C 55.8°F13.2°C 88% Calm Calm 1.2 mph1.9 kmh 30.14 in1020.7 mb - 0.00 in0.0 mm 0.00 in0.0 mm
05:10 AM 59.2°F15.1°C 55.7°F13.2°C 88% 3.5 mph S5.6 kmh S 3.5 mph5.6 kmh 30.13 in1020.3 mb - 0.00 in0.0 mm 0.00 in0.0 mm
05:00 AM 59.2°F15.1°C 55.7°F13.2°C 88% 4.6 mph SSW7.4 kmh SSW 6.9 mph11.1 kmh 30.13 in1020.3 mb - 0.00 in0.0 mm 0.00 in0.0 mm
04:50 AM 59.2°F15.1°C 55.6°F13.1°C 88% 2.3 mph S3.7 kmh S 4.6 mph7.4 kmh 30.13 in1020.3 mb - 0.00 in0.0 mm 0.00 in0.0 mm
04:40 AM 59.1°F15.1°C 55.5°F13.1°C 88% 2.3 mph S3.7 kmh S 3.5 mph5.6 kmh 30.13 in1020.3 mb - 0.00 in0.0 mm 0.00 in0.0 mm
04:30 AM 59.2°F15.1°C 55.6°F13.1°C 88% 1.2 mph S1.9 kmh S 2.3 mph3.7 kmh 30.13 in1020.3 mb - 0.00 in0.0 mm 0.00 in0.0 mm
04:20 AM 59.3°F15.2°C 55.7°F13.2°C 88% 1.2 mph S1.9 kmh S 1.2 mph1.9 kmh 30.13 in1020.3 mb - 0.00 in0.0 mm 0.00 in0.0 mm
04:10 AM 59.4°F15.2°C 55.8°F13.2°C 88% 3.5 mph S5.6 kmh S 4.6 mph7.4 kmh 30.13 in1020.3 mb - 0.00 in0.0 mm 0.00 in0.0 mm
04:00 AM 59.5°F15.3°C 55.9°F13.3°C 88% 2.3 mph S3.7 kmh S 3.5 mph5.6 kmh 30.13 in1020.3 mb - 0.00 in0.0 mm 0.00 in0.0 mm
03:50 AM 59.6°F15.3°C 56.0°F13.3°C 88% 2.3 mph SSW3.7 kmh SSW 3.5 mph5.6 kmh 30.13 in1020.3 mb - 0.00 in0.0 mm 0.00 in0.0 mm
03:40 AM 59.5°F15.3°C 55.9°F13.3°C 88% 4.6 mph S7.4 kmh S 4.6 mph7.4 kmh 30.13 in1020.3 mb - 0.00 in0.0 mm 0.00 in0.0 mm
03:30 AM 59.5°F15.3°C 55.9°F13.3°C 88% 2.3 mph S3.7 kmh S 3.5 mph5.6 kmh 30.13 in1020.3 mb - 0.00 in0.0 mm 0.00 in0.0 mm
03:20 AM 59.4°F15.2°C 55.8°F13.2°C 88% 3.5 mph SSW5.6 kmh SSW 4.6 mph7.4 kmh 30.13 in1020.3 mb - 0.00 in0.0 mm 0.00 in0.0 mm
03:10 AM 59.3°F15.2°C 55.7°F13.2°C 88% 1.2 mph S1.9 kmh S 3.5 mph5.6 kmh 30.13 in1020.3 mb - 0.00 in0.0 mm 0.00 in0.0 mm
03:00 AM 59.2°F15.1°C 56.0°F13.3°C 89% 4.6 mph SSW7.4 kmh SSW 4.6 mph7.4 kmh 30.13 in1020.3 mb - 0.00 in0.0 mm 0.00 in0.0 mm
02:50 AM 59.1°F15.1°C 55.9°F13.3°C 89% 3.5 mph S5.6 kmh S 3.5 mph5.6 kmh 30.13 in1020.3 mb - 0.00 in0.0 mm 0.00 in0.0 mm
02:40 AM 59.1°F15.1°C 55.9°F13.3°C 89% 3.5 mph SSW5.6 kmh SSW 5.8 mph9.3 kmh 30.13 in1020.3 mb - 0.00 in0.0 mm 0.00 in0.0 mm
02:30 AM 59.1°F15.1°C 55.9°F13.3°C 89% 2.3 mph SSW3.7 kmh SSW 3.5 mph5.6 kmh 30.13 in1020.3 mb - 0.00 in0.0 mm 0.00 in0.0 mm
02:20 AM 59.2°F15.1°C 56.0°F13.3°C 89% 3.5 mph SW5.6 kmh SW 4.6 mph7.4 kmh 30.13 in1020.3 mb - 0.00 in0.0 mm 0.00 in0.0 mm
02:10 AM 59.3°F15.2°C 56.1°F13.4°C 89% 1.2 mph SSW1.9 kmh SSW 2.3 mph3.7 kmh 30.13 in1020.3 mb - 0.00 in0.0 mm 0.00 in0.0 mm
02:00 AM 59.3°F15.2°C 56.1°F13.4°C 89% 2.3 mph S3.7 kmh S 3.5 mph5.6 kmh 30.13 in1020.3 mb - 0.00 in0.0 mm 0.00 in0.0 mm
01:50 AM 59.2°F15.1°C 56.0°F13.3°C 89% 2.3 mph SSW3.7 kmh SSW 3.5 mph5.6 kmh 30.13 in1020.3 mb - 0.00 in0.0 mm 0.00 in0.0 mm
01:40 AM 59.2°F15.1°C 56.0°F13.3°C 89% 3.5 mph SW5.6 kmh SW 4.6 mph7.4 kmh 30.13 in1020.3 mb - 0.00 in0.0 mm 0.00 in0.0 mm
01:30 AM 59.1°F15.1°C 55.9°F13.3°C 89% 1.2 mph SW1.9 kmh SW 1.2 mph1.9 kmh 30.14 in1020.7 mb - 0.00 in0.0 mm 0.00 in0.0 mm
01:20 AM 59.0°F15.0°C 55.8°F13.2°C 89% 1.2 mph SSW1.9 kmh SSW 3.5 mph5.6 kmh 30.14 in1020.7 mb - 0.00 in0.0 mm 0.00 in0.0 mm
01:10 AM 59.0°F15.0°C 55.8°F13.2°C 89% 3.5 mph SSW5.6 kmh SSW 4.6 mph7.4 kmh 30.14 in1020.7 mb - 0.00 in0.0 mm 0.00 in0.0 mm
01:00 AM 58.9°F14.9°C 55.7°F13.2°C 89% 3.5 mph S5.6 kmh S 3.5 mph5.6 kmh 30.14 in1020.7 mb - 0.00 in0.0 mm 0.00 in0.0 mm
12:50 AM 58.5°F14.7°C 55.3°F12.9°C 89% 3.5 mph S5.6 kmh S 5.8 mph9.3 kmh 30.14 in1020.7 mb - 0.00 in0.0 mm 0.00 in0.0 mm
12:40 AM 58.5°F14.7°C 55.3°F12.9°C 89% 3.5 mph SSW5.6 kmh SSW 5.8 mph9.3 kmh 30.14 in1020.7 mb - 0.00 in0.0 mm 0.00 in0.0 mm
12:30 AM 58.5°F14.7°C 55.0°F12.8°C 88% 3.5 mph SSW5.6 kmh SSW 6.9 mph11.1 kmh 30.14 in1020.7 mb - 0.00 in0.0 mm 0.00 in0.0 mm
12:20 AM 58.6°F14.8°C 55.1°F12.8°C 88% 3.5 mph SSW5.6 kmh SSW 4.6 mph7.4 kmh 30.14 in1020.7 mb - 0.00 in0.0 mm 0.00 in0.0 mm
12:10 AM 58.8°F14.9°C 55.3°F12.9°C 88% 3.5 mph SSW5.6 kmh SSW 4.6 mph7.4 kmh 30.14 in1020.7 mb - 0.00 in0.0 mm 0.00 in0.0 mm
12:00 AM 59.0°F15.0°C 55.1°F12.8°C 87% 3.5 mph S5.6 kmh S 3.5 mph5.6 kmh 30.14 in1020.7 mb - 0.00 in0.0 mm 0.00 in0.0 mm